createdAt,value
2017-09-15T00:00:05.884Z,96951.05
2017-09-15T00:02:33.507Z,96954.02
2017-09-15T00:05:01.099Z,96960.78
2017-09-15T00:07:28.812Z,96955.27
2017-09-15T00:09:57.212Z,96954.02
2017-09-15T00:12:24.801Z,96960.34
2017-09-15T00:14:52.731Z,96956.12
2017-09-15T00:17:20.321Z,96957.80
2017-09-15T00:19:47.953Z,96962.91
2017-09-15T00:22:15.538Z,96964.61
2017-09-15T00:24:43.106Z,96967.15
2017-09-15T00:27:11.069Z,96962.95
2017-09-15T00:29:38.638Z,96967.59
2017-09-15T00:32:06.212Z,96967.61
2017-09-15T00:34:33.786Z,96965.48
2017-09-15T00:37:01.358Z,96972.69
2017-09-15T00:39:28.952Z,96963.81
2017-09-15T00:41:56.540Z,96974.79
2017-09-15T00:44:24.448Z,96972.69
2017-09-15T00:46:52.016Z,96974.41
2017-09-15T00:49:19.623Z,96968.91
2017-09-15T00:51:47.249Z,96970.59
2017-09-15T00:54:14.821Z,96971.88
2017-09-15T00:56:42.727Z,96972.73
2017-09-15T00:59:10.277Z,96976.08
2017-09-15T01:01:37.844Z,96968.45
2017-09-15T01:04:05.441Z,96968.89
2017-09-15T01:06:33.351Z,96964.62
2017-09-15T01:09:00.923Z,96966.73
2017-09-15T01:11:28.519Z,96965.93
2017-09-15T01:13:56.447Z,96962.96
2017-09-15T01:16:24.046Z,96965.94
2017-09-15T01:18:51.634Z,96960.86
2017-09-15T01:21:19.252Z,96957.45
2017-09-15T01:23:46.834Z,96964.22
2017-09-15T01:26:14.412Z,96963.38
2017-09-15T01:28:41.993Z,96955.35
2017-09-15T01:31:09.858Z,96960.42
2017-09-15T01:33:37.894Z,96954.53
2017-09-15T01:36:05.421Z,96946.88
2017-09-15T01:38:33.007Z,96951.56
2017-09-15T01:41:00.567Z,96940.14
2017-09-15T01:43:28.503Z,96939.34
2017-09-15T01:45:56.053Z,96941.02
2017-09-15T01:48:23.659Z,96943.60
2017-09-15T01:50:51.274Z,96951.17
2017-09-15T01:53:18.840Z,96955.00
2017-09-15T01:55:46.443Z,96952.47
2017-09-15T01:58:14.013Z,96957.14
2017-09-15T02:00:41.577Z,96953.75
2017-09-15T02:03:09.173Z,96958.00
2017-09-15T02:05:37.764Z,96952.50
2017-09-15T02:08:05.350Z,96959.28
2017-09-15T02:10:32.914Z,96960.54
2017-09-15T02:13:00.836Z,96961.40
2017-09-15T02:15:28.490Z,96961.80
2017-09-15T02:17:56.166Z,96960.06
2017-09-15T02:20:23.767Z,96964.67
2017-09-15T02:22:51.319Z,96964.21
2017-09-15T02:25:19.303Z,96970.55
2017-09-15T02:27:46.900Z,96971.38
2017-09-15T02:30:14.788Z,96971.34
2017-09-15T02:32:42.350Z,96974.30
2017-09-15T02:35:09.913Z,96975.12
2017-09-15T02:37:37.485Z,96970.88
2017-09-15T02:40:05.054Z,96974.64
2017-09-15T02:42:32.648Z,96985.23
2017-09-15T02:45:00.203Z,96982.64
2017-09-15T02:47:28.125Z,96977.56
2017-09-15T02:49:55.708Z,96975.87
2017-09-15T02:52:23.278Z,96985.61
2017-09-15T02:54:50.831Z,96979.73
2017-09-15T02:57:18.381Z,96983.56
2017-09-15T02:59:45.964Z,96980.60
2017-09-15T03:02:13.538Z,96982.27
2017-09-15T03:04:41.397Z,96981.38
2017-09-15T03:07:08.956Z,96979.72
2017-09-15T03:09:36.525Z,96985.63
2017-09-15T03:12:04.593Z,96985.59
2017-09-15T03:14:32.591Z,96988.50
2017-09-15T03:17:00.300Z,96985.09
2017-09-15T03:19:27.853Z,96983.80
2017-09-15T03:21:55.912Z,96987.58
2017-09-15T03:24:23.686Z,96991.81
2017-09-15T03:26:51.278Z,96992.23
2017-09-15T03:29:18.874Z,96988.02
2017-09-15T03:31:46.423Z,96987.61
2017-09-15T03:34:14.007Z,96987.23
2017-09-15T03:36:41.587Z,96980.45
2017-09-15T03:39:09.530Z,96987.15
2017-09-15T03:41:37.097Z,96987.11
2017-09-15T03:44:04.705Z,96982.05
2017-09-15T03:46:32.307Z,96970.59
2017-09-15T03:48:59.852Z,96973.51
2017-09-15T03:51:27.453Z,96979.06
2017-09-15T03:53:55.010Z,96981.98
2017-09-15T03:56:22.601Z,96979.02
2017-09-15T03:58:50.169Z,96971.02
2017-09-15T04:01:17.761Z,96970.59
2017-09-15T04:03:45.349Z,96963.78
2017-09-15T04:06:13.630Z,96961.66
2017-09-15T04:08:41.193Z,96965.85
2017-09-15T04:11:10.358Z,96968.73
2017-09-15T04:13:38.022Z,96973.38
2017-09-15T04:16:05.595Z,96962.80
2017-09-15T04:18:33.169Z,96962.80
2017-09-15T04:21:00.806Z,96956.03
2017-09-15T04:23:28.414Z,96961.07
2017-09-15T04:25:55.972Z,96957.22
2017-09-15T04:28:23.920Z,96953.82
2017-09-15T04:30:51.460Z,96957.95
2017-09-15T04:33:19.035Z,96955.78
2017-09-15T04:35:46.632Z,96964.64
2017-09-15T04:38:14.892Z,96969.31
2017-09-15T04:40:42.472Z,96966.33
2017-09-15T04:43:10.031Z,96965.40
2017-09-15T04:45:37.589Z,96963.63
2017-09-15T04:48:05.249Z,96957.66
2017-09-15T04:50:33.164Z,96957.19
2017-09-15T04:53:00.705Z,96960.09
2017-09-15T04:55:28.269Z,96965.48
2017-09-15T04:57:55.859Z,96975.12
2017-09-15T05:00:23.434Z,96968.73
2017-09-15T05:02:51.152Z,96967.42
2017-09-15T05:05:18.741Z,96970.81
2017-09-15T05:07:46.323Z,96976.27
2017-09-15T05:10:13.887Z,96978.38
2017-09-15T05:12:41.843Z,96977.55
2017-09-15T05:15:09.611Z,96970.37
2017-09-15T05:17:37.162Z,96977.93
2017-09-15T05:20:04.783Z,96976.65
2017-09-15T05:22:32.346Z,96974.08
2017-09-15T05:25:01.339Z,96973.25
2017-09-15T05:27:28.957Z,96975.84
2017-09-15T05:29:56.576Z,96972.12
2017-09-15T05:32:24.143Z,96975.12
2017-09-15T05:34:52.003Z,96973.46
2017-09-15T05:37:19.667Z,96977.29
2017-09-15T05:39:47.362Z,96980.28
2017-09-15T05:42:14.965Z,96979.88
2017-09-15T05:44:42.552Z,96975.66
2017-09-15T05:47:10.131Z,96972.71
2017-09-15T05:49:37.958Z,96971.03
2017-09-15T05:52:05.881Z,96968.94
2017-09-15T05:54:33.435Z,96965.13
2017-09-15T05:57:00.996Z,96960.91
2017-09-15T05:59:28.587Z,96959.65
2017-09-15T06:01:56.173Z,96955.45
2017-09-15T06:04:23.769Z,96955.14
2017-09-15T06:06:51.315Z,96950.57
2017-09-15T06:09:18.905Z,96948.49
2017-09-15T06:11:46.484Z,96946.44
2017-09-15T06:14:14.091Z,96941.80
2017-09-15T06:16:41.666Z,96948.20
2017-09-15T06:19:09.264Z,96944.03
2017-09-15T06:21:36.841Z,96949.20
2017-09-15T06:24:05.278Z,96946.28
2017-09-15T06:26:32.837Z,96943.38
2017-09-15T06:29:00.392Z,96943.85
2017-09-15T06:31:28.028Z,96949.03
2017-09-15T06:33:55.608Z,96951.23
2017-09-15T06:36:23.181Z,96948.30
2017-09-15T06:38:50.747Z,96947.91
2017-09-15T06:41:18.322Z,96945.39
2017-09-15T06:43:45.878Z,96947.55
2017-09-15T06:46:13.793Z,96949.33
2017-09-15T06:48:41.345Z,96948.96
2017-09-15T06:51:08.910Z,96944.83
2017-09-15T06:53:36.485Z,96957.95
2017-09-15T06:56:04.057Z,96949.58
2017-09-15T06:58:31.670Z,96950.09
2017-09-15T07:00:59.226Z,96942.10
2017-09-15T07:03:26.857Z,96938.75
2017-09-15T07:05:54.447Z,96943.89
2017-09-15T07:08:22.364Z,96944.77
2017-09-15T07:10:49.928Z,96936.31
2017-09-15T07:13:17.490Z,96943.13
2017-09-15T07:15:45.081Z,96942.73
2017-09-15T07:18:12.661Z,96939.84
2017-09-15T07:20:40.390Z,96937.31
2017-09-15T07:23:07.931Z,96942.88
2017-09-15T07:25:35.913Z,96947.15
2017-09-15T07:28:03.457Z,96944.66
2017-09-15T07:30:31.031Z,96955.70
2017-09-15T07:32:58.617Z,96943.02
2017-09-15T07:35:26.657Z,96943.06
2017-09-15T07:37:54.220Z,96951.98
2017-09-15T07:40:21.805Z,96958.35
2017-09-15T07:42:49.464Z,96953.72
2017-09-15T07:45:17.044Z,96960.95
2017-09-15T07:47:44.716Z,96954.63
2017-09-15T07:50:13.105Z,96949.61
2017-09-15T07:52:40.725Z,96954.29
2017-09-15T07:55:08.293Z,96950.91
2017-09-15T07:57:36.232Z,96951.38
2017-09-15T08:00:03.830Z,96954.77
2017-09-15T08:02:31.443Z,96953.94
2017-09-15T08:04:59.093Z,96948.84
2017-09-15T08:07:26.667Z,96944.19
2017-09-15T08:09:54.261Z,96939.95
2017-09-15T08:12:21.818Z,96942.52
2017-09-15T08:14:49.415Z,96933.61
2017-09-15T08:17:17.016Z,96934.02
2017-09-15T08:19:44.572Z,96932.36
2017-09-15T08:22:12.150Z,96927.28
2017-09-15T08:24:39.716Z,96926.42
2017-09-15T08:27:07.324Z,96917.50
2017-09-15T08:29:34.917Z,96914.94
2017-09-15T08:32:02.531Z,96917.91
2017-09-15T08:34:30.110Z,96922.14
2017-09-15T08:36:57.695Z,96917.88
2017-09-15T08:39:25.257Z,96911.92
2017-09-15T08:41:53.235Z,96908.09
2017-09-15T08:44:20.813Z,96907.23
2017-09-15T08:46:48.357Z,96907.23
2017-09-15T08:49:15.949Z,96902.53
2017-09-15T08:51:43.528Z,96899.55
2017-09-15T08:54:11.246Z,96901.21
2017-09-15T08:56:38.834Z,96892.65
2017-09-15T08:59:06.447Z,96888.36
2017-09-15T09:01:34.149Z,96884.52
2017-09-15T09:04:02.365Z,96890.41
2017-09-15T09:06:29.951Z,96885.33
2017-09-15T09:08:57.924Z,96886.14
2017-09-15T09:11:25.492Z,96877.17
2017-09-15T09:13:53.113Z,96885.64
2017-09-15T09:16:20.694Z,96885.20
2017-09-15T09:18:48.295Z,96887.30
2017-09-15T09:21:15.889Z,96885.16
2017-09-15T09:23:44.997Z,96884.28
2017-09-15T09:26:12.708Z,96879.11
2017-09-15T09:28:40.319Z,96870.09
2017-09-15T09:31:08.221Z,96863.59
2017-09-15T09:33:35.990Z,96855.81
2017-09-15T09:36:03.589Z,96854.02
2017-09-15T09:38:31.188Z,96858.67
2017-09-15T09:40:58.778Z,96845.83
2017-09-15T09:43:26.364Z,96842.75
2017-09-15T09:45:53.935Z,96839.30
2017-09-15T09:48:21.501Z,96844.42
2017-09-15T09:50:49.082Z,96843.14
2017-09-15T09:53:16.699Z,96851.21
2017-09-15T09:58:17.402Z,96838.83
2017-09-15T10:00:44.989Z,96837.84
2017-09-15T10:03:12.578Z,96841.84
2017-09-15T10:05:40.175Z,96840.68
2017-09-15T10:08:07.939Z,96826.78
2017-09-15T10:10:35.558Z,96828.16
2017-09-15T10:13:03.147Z,96813.68
2017-09-15T10:15:30.773Z,96811.47
2017-09-15T10:17:58.899Z,96809.27
2017-09-15T10:20:27.857Z,96811.80
2017-09-15T10:22:55.446Z,96806.72
2017-09-15T10:25:23.001Z,96818.11
2017-09-15T10:27:50.653Z,96817.20
2017-09-15T10:30:18.222Z,96811.20
2017-09-15T10:32:45.870Z,96797.16
2017-09-15T10:35:13.528Z,96781.77
2017-09-15T10:37:41.156Z,96779.95
2017-09-15T10:40:08.750Z,96782.81
2017-09-15T10:42:36.679Z,96784.83
2017-09-15T10:45:04.282Z,96785.21
2017-09-15T10:47:31.934Z,96786.02
2017-09-15T10:49:59.557Z,96787.05
2017-09-15T10:52:27.159Z,96789.80
2017-09-15T10:54:54.850Z,96798.11
2017-09-15T10:57:22.446Z,96790.17
2017-09-15T10:59:55.736Z,96783.46
2017-09-15T11:02:23.329Z,96785.28
2017-09-15T11:04:50.913Z,96783.95
2017-09-15T11:07:18.523Z,96782.75
2017-09-15T11:09:46.576Z,96776.04
2017-09-15T11:12:14.169Z,96774.39
2017-09-15T11:14:41.757Z,96764.14
2017-09-15T11:17:09.409Z,96765.52
2017-09-15T11:19:36.983Z,96765.11
2017-09-15T11:22:04.620Z,96768.47
2017-09-15T11:24:32.223Z,96773.59
2017-09-15T11:26:59.824Z,96761.64
2017-09-15T11:29:27.403Z,96762.01
2017-09-15T11:31:54.980Z,96762.91
2017-09-15T11:34:22.703Z,96766.08
2017-09-15T11:36:50.295Z,96760.30
2017-09-15T11:39:18.079Z,96751.72
2017-09-15T11:41:45.903Z,96762.59
2017-09-15T11:44:13.873Z,96762.39
2017-09-15T11:46:41.540Z,96756.05
2017-09-15T11:49:09.296Z,96762.36
2017-09-15T11:51:37.307Z,96756.96
2017-09-15T11:54:04.958Z,96751.78
2017-09-15T11:56:32.583Z,96740.19
2017-09-15T11:59:00.214Z,96734.61
2017-09-15T12:01:28.277Z,96725.61
2017-09-15T12:03:55.968Z,96725.14
2017-09-15T12:06:23.586Z,96716.97
2017-09-15T12:08:51.308Z,96717.00
2017-09-15T12:11:18.955Z,96711.45
2017-09-15T12:13:46.575Z,96718.38
2017-09-15T12:16:14.157Z,96714.83
2017-09-15T12:18:42.090Z,96721.47
2017-09-15T12:21:09.723Z,96723.36
2017-09-15T12:23:37.333Z,96726.39
2017-09-15T12:26:04.938Z,96724.11
2017-09-15T12:28:32.670Z,96722.05
2017-09-15T12:31:00.319Z,96730.70
2017-09-15T12:33:27.966Z,96725.89
2017-09-15T12:35:55.914Z,96732.20
2017-09-15T12:38:23.531Z,96729.91
2017-09-15T12:40:51.175Z,96727.07
2017-09-15T12:43:18.978Z,96729.17
2017-09-15T12:45:46.544Z,96736.66
2017-09-15T12:48:14.130Z,96729.77
2017-09-15T12:50:42.750Z,96726.58
2017-09-15T12:53:10.896Z,96721.91
2017-09-15T12:55:38.550Z,96715.88
2017-09-15T12:58:06.144Z,96714.20
2017-09-15T13:00:33.759Z,96718.69
2017-09-15T13:03:01.454Z,96709.05
2017-09-15T13:05:29.121Z,96704.03
2017-09-15T13:07:56.736Z,96703.41
2017-09-15T13:10:24.649Z,96708.00
2017-09-15T13:12:52.266Z,96702.75
2017-09-15T13:15:19.851Z,96699.72
2017-09-15T13:17:47.579Z,96692.22
2017-09-15T13:20:15.530Z,96681.42
2017-09-15T13:22:43.133Z,96703.38
2017-09-15T13:25:10.733Z,96696.72
2017-09-15T13:27:38.325Z,96695.12
2017-09-15T13:30:05.885Z,96691.09
2017-09-15T13:32:33.492Z,96682.46
2017-09-15T13:35:01.072Z,96675.23
2017-09-15T13:37:28.667Z,96675.44
2017-09-15T13:39:56.242Z,96670.56
2017-09-15T13:42:24.115Z,96669.75
2017-09-15T13:44:51.680Z,96668.98
2017-09-15T13:47:19.250Z,96677.16
2017-09-15T13:49:46.845Z,96670.70
2017-09-15T13:52:14.427Z,96675.91
2017-09-15T13:54:42.053Z,96673.30
2017-09-15T13:57:09.702Z,96668.42
2017-09-15T13:59:37.296Z,96675.78
2017-09-15T14:02:04.872Z,96673.78
2017-09-15T14:04:32.477Z,96669.75
2017-09-15T14:07:00.154Z,96665.89
2017-09-15T14:09:28.121Z,96664.23
2017-09-15T14:11:55.697Z,96662.61
2017-09-15T14:14:23.364Z,96666.05
2017-09-15T14:16:50.989Z,96655.70
2017-09-15T14:19:18.604Z,96660.23
2017-09-15T14:21:47.586Z,96653.79
2017-09-15T14:24:15.306Z,96658.25
2017-09-15T14:26:43.029Z,96668.63
2017-09-15T14:29:10.613Z,96669.66
2017-09-15T14:31:38.536Z,96671.66
2017-09-15T14:34:06.120Z,96676.32
2017-09-15T14:36:33.725Z,96679.70
2017-09-15T14:39:01.335Z,96674.61
2017-09-15T14:41:28.934Z,96672.13
2017-09-15T14:43:56.973Z,96666.53
2017-09-15T14:46:24.570Z,96665.14
2017-09-15T14:48:53.279Z,96665.64
2017-09-15T14:51:20.871Z,96662.34
2017-09-15T14:53:48.469Z,96660.13
2017-09-15T14:56:16.946Z,96652.28
2017-09-15T14:58:44.852Z,96641.52
2017-09-15T15:01:12.427Z,96646.22
2017-09-15T15:03:40.026Z,96638.22
2017-09-15T15:06:07.681Z,96636.20
2017-09-15T15:08:35.252Z,96642.80
2017-09-15T15:11:02.900Z,96637.39
2017-09-15T15:13:30.482Z,96632.30
2017-09-15T15:15:58.095Z,96636.61
2017-09-15T15:18:25.724Z,96625.47
2017-09-15T15:20:54.634Z,96615.71
2017-09-15T15:23:23.218Z,96613.73
2017-09-15T15:25:50.876Z,96605.61
2017-09-15T15:28:18.544Z,96608.14
2017-09-15T15:30:48.258Z,96604.02
2017-09-15T15:33:15.917Z,96598.11
2017-09-15T15:35:50.481Z,96591.31
2017-09-15T15:38:19.489Z,96592.66
2017-09-15T15:40:47.134Z,96583.77
2017-09-15T15:43:15.686Z,96584.73
2017-09-15T15:45:43.431Z,96592.24
2017-09-15T15:48:11.727Z,96597.97
2017-09-15T15:50:39.511Z,96593.87
2017-09-15T15:53:07.110Z,96593.91
2017-09-15T15:55:37.319Z,96598.17
2017-09-15T15:58:04.908Z,96597.02
2017-09-15T16:00:32.908Z,96591.67
2017-09-15T16:03:00.972Z,96585.41
2017-09-15T16:05:29.442Z,96596.49
2017-09-15T16:07:57.131Z,96596.46
2017-09-15T16:10:24.760Z,96596.83
2017-09-15T16:12:52.377Z,96589.58
2017-09-15T16:15:19.987Z,96595.12
2017-09-15T16:17:47.606Z,96598.59
2017-09-15T16:20:15.232Z,96591.98
2017-09-15T16:22:42.834Z,96591.20
2017-09-15T16:25:11.183Z,96597.59
2017-09-15T16:27:38.750Z,96597.29
2017-09-15T16:30:06.366Z,96598.23
2017-09-15T16:32:33.982Z,96604.66
2017-09-15T16:35:01.593Z,96600.45
2017-09-15T16:37:28.796Z,96605.20
2017-09-15T16:40:02.220Z,96615.12
2017-09-15T16:42:35.463Z,96621.57
2017-09-15T16:45:08.614Z,96619.92
2017-09-15T16:47:42.045Z,96619.58
2017-09-15T16:50:09.622Z,96619.20
2017-09-15T16:52:37.225Z,96615.42
2017-09-15T16:55:04.831Z,96606.07
2017-09-15T16:57:32.417Z,96609.14
2017-09-15T17:00:00.042Z,96604.08
2017-09-15T17:02:27.662Z,96607.09
2017-09-15T17:04:55.597Z,96609.64
2017-09-15T17:07:23.357Z,96602.41
2017-09-15T17:09:50.926Z,96611.02
2017-09-15T17:12:18.745Z,96608.05
2017-09-15T17:14:46.346Z,96603.85
2017-09-15T17:17:14.470Z,96604.75
2017-09-15T17:19:42.221Z,96599.27
2017-09-15T17:22:10.347Z,96603.63
2017-09-15T17:24:37.971Z,96601.11
2017-09-15T17:27:05.546Z,96606.70
2017-09-15T17:29:33.190Z,96603.77
2017-09-15T17:32:00.769Z,96610.63
2017-09-15T17:34:29.672Z,96610.67
2017-09-15T17:36:57.265Z,96605.65
2017-09-15T17:39:24.895Z,96610.78
2017-09-15T17:41:52.505Z,96613.41
2017-09-15T17:44:20.125Z,96616.84
2017-09-15T17:46:47.761Z,96613.45
2017-09-15T17:49:15.602Z,96622.00
2017-09-15T17:51:43.511Z,96628.42
2017-09-15T17:54:11.147Z,96630.25
2017-09-15T17:56:38.891Z,96628.22
2017-09-15T17:59:06.516Z,96633.42
2017-09-15T18:01:34.141Z,96634.77
2017-09-15T18:04:01.763Z,96645.05
2017-09-15T18:06:29.378Z,96644.23
2017-09-15T18:08:57.028Z,96644.27
2017-09-15T18:11:24.668Z,96646.00
2017-09-15T18:13:52.285Z,96657.55
2017-09-15T18:16:20.243Z,96662.30
2017-09-15T18:18:47.878Z,96667.45
2017-09-15T18:21:15.470Z,96670.03
2017-09-15T18:23:43.081Z,96667.94
2017-09-15T18:26:10.651Z,96668.36
2017-09-15T18:28:38.316Z,96672.23
2017-09-15T18:31:05.921Z,96670.95
2017-09-15T18:33:33.946Z,96672.69
2017-09-15T18:36:01.540Z,96674.86
2017-09-15T18:38:29.267Z,96668.94
2017-09-15T18:40:56.909Z,96674.03
2017-09-15T18:43:24.562Z,96680.84
2017-09-15T18:45:53.490Z,96677.02
2017-09-15T18:48:21.111Z,96677.45
2017-09-15T18:50:49.076Z,96679.17
2017-09-15T18:53:16.681Z,96683.44
2017-09-15T18:55:44.275Z,96679.63
2017-09-15T18:58:11.940Z,96680.91
2017-09-15T19:00:39.541Z,96680.93
2017-09-15T19:03:07.178Z,96678.44
2017-09-15T19:05:34.783Z,96677.59
2017-09-15T19:08:02.786Z,96675.06
2017-09-15T19:10:30.444Z,96677.20
2017-09-15T19:12:58.070Z,96678.05
2017-09-15T19:15:25.676Z,96675.11
2017-09-15T19:17:53.292Z,96671.75
2017-09-15T19:20:20.863Z,96664.53
2017-09-15T19:22:48.943Z,96664.11
2017-09-15T19:25:16.857Z,96665.40
2017-09-15T19:27:45.910Z,96665.43
2017-09-15T19:30:13.532Z,96663.31
2017-09-15T19:32:41.235Z,96657.78
2017-09-15T19:35:09.000Z,96653.13
2017-09-15T19:37:36.669Z,96652.28
2017-09-15T19:40:04.268Z,96645.52
2017-09-15T19:42:32.315Z,96642.54
2017-09-15T19:44:59.882Z,96644.69
2017-09-15T19:47:28.798Z,96646.00
2017-09-15T19:49:56.506Z,96645.99
2017-09-15T19:52:24.720Z,96644.73
2017-09-15T19:54:52.335Z,96637.52
2017-09-15T19:57:19.925Z,96633.31
2017-09-15T19:59:47.886Z,96629.07
2017-09-15T20:02:15.477Z,96627.80
2017-09-15T20:04:43.098Z,96631.20
2017-09-15T20:07:10.754Z,96636.28
2017-09-15T20:09:38.327Z,96631.66
2017-09-15T20:12:06.021Z,96628.25
2017-09-15T20:14:33.645Z,96620.20
2017-09-15T20:17:01.652Z,96626.16
2017-09-15T20:19:29.309Z,96637.61
2017-09-15T20:21:56.915Z,96647.36
2017-09-15T20:24:24.543Z,96641.42
2017-09-15T20:26:52.126Z,96640.58
2017-09-15T20:29:19.770Z,96639.73
2017-09-15T20:31:47.441Z,96639.31
2017-09-15T20:34:15.693Z,96638.88
2017-09-15T20:36:43.284Z,96643.96
2017-09-15T20:39:10.891Z,96651.61
2017-09-15T20:41:38.548Z,96653.71
2017-09-15T20:44:06.164Z,96645.69
2017-09-15T20:46:33.819Z,96651.19
2017-09-15T20:49:01.449Z,96650.75
2017-09-15T20:51:29.370Z,96649.50
2017-09-15T20:53:56.957Z,96646.09
2017-09-15T20:56:24.540Z,96648.66
2017-09-15T20:58:52.782Z,96638.06
2017-09-15T21:01:29.241Z,96635.94
2017-09-15T21:03:57.051Z,96628.31
2017-09-15T21:06:24.628Z,96638.07
2017-09-15T21:08:52.609Z,96644.41
2017-09-15T21:11:20.399Z,96633.39
2017-09-15T21:13:48.004Z,96630.85
2017-09-15T21:16:15.611Z,96630.01
2017-09-15T21:18:43.232Z,96637.21
2017-09-15T21:21:11.160Z,96638.05
2017-09-15T21:23:38.770Z,96652.45
2017-09-15T21:26:06.373Z,96658.39
2017-09-15T21:28:34.237Z,96651.62
2017-09-15T21:31:01.813Z,96648.23
2017-09-15T21:33:29.405Z,96643.55
2017-09-15T21:35:56.998Z,96648.63
2017-09-15T21:38:24.944Z,96648.64
2017-09-15T21:40:52.531Z,96649.07
2017-09-15T21:43:20.114Z,96647.35
2017-09-15T21:45:47.722Z,96634.66
2017-09-15T21:48:15.335Z,96644.84
2017-09-15T21:50:42.968Z,96646.95
2017-09-15T21:53:10.530Z,96655.43
2017-09-15T21:55:38.475Z,96651.17
2017-09-15T21:58:06.137Z,96647.36
2017-09-15T22:00:33.735Z,96649.50
2017-09-15T22:03:01.386Z,96647.37
2017-09-15T22:05:28.989Z,96641.86
2017-09-15T22:07:56.592Z,96630.00
2017-09-15T22:10:24.192Z,96629.59
2017-09-15T22:12:51.941Z,96613.92
2017-09-15T22:15:19.557Z,96620.27
2017-09-15T22:17:48.701Z,96627.46
2017-09-15T22:20:16.245Z,96626.20
2017-09-15T22:22:43.825Z,96619.84
2017-09-15T22:25:11.470Z,96613.03
2017-09-15T22:27:39.089Z,96617.69
2017-09-15T22:30:06.699Z,96627.84
2017-09-15T22:32:34.280Z,96620.66
2017-09-15T22:35:02.271Z,96615.57
2017-09-15T22:37:29.856Z,96606.69
2017-09-15T22:39:57.559Z,96601.58
2017-09-15T22:42:25.169Z,96600.76
2017-09-15T22:44:52.753Z,96594.41
2017-09-15T22:47:20.948Z,96588.91
2017-09-15T22:49:48.533Z,96591.86
2017-09-15T22:52:16.536Z,96593.98
2017-09-15T22:54:44.277Z,96588.89
2017-09-15T22:57:11.880Z,96580.41
2017-09-15T22:59:39.465Z,96574.50
2017-09-15T23:02:07.025Z,96569.41
2017-09-15T23:04:34.654Z,96575.36
2017-09-15T23:07:02.229Z,96571.52
2017-09-15T23:09:30.394Z,96571.95
2017-09-15T23:11:57.978Z,96576.61
2017-09-15T23:14:25.562Z,96587.61
2017-09-15T23:16:53.148Z,96575.77
2017-09-15T23:19:20.714Z,96563.07
2017-09-15T23:21:48.455Z,96568.98
2017-09-15T23:24:17.463Z,96559.69
2017-09-15T23:26:45.060Z,96568.98
2017-09-15T23:29:12.681Z,96571.52
2017-09-15T23:31:40.719Z,96577.02
2017-09-15T23:34:08.556Z,96585.09
2017-09-15T23:36:36.135Z,96595.66
2017-09-15T23:39:04.075Z,96586.36
2017-09-15T23:41:32.033Z,96580.42
2017-09-15T23:43:59.626Z,96574.48
2017-09-15T23:46:27.212Z,96569.84
2017-09-15T23:48:54.849Z,96565.19
2017-09-15T23:51:22.457Z,96567.28
2017-09-15T23:53:50.560Z,96560.10
2017-09-15T23:56:18.154Z,96562.63
2017-09-15T23:58:45.894Z,96563.06
